createdAt,value
2022-11-11T00:01:01.986Z,7.43
2022-11-11T00:03:29.449Z,7.28
2022-11-11T00:06:01.202Z,6.40
2022-11-11T00:08:27.634Z,6.20
2022-11-11T00:10:54.031Z,5.63
2022-11-11T00:13:20.661Z,5.70
2022-11-11T00:15:47.374Z,5.03
2022-11-11T00:18:32.667Z,4.95
2022-11-11T00:21:18.093Z,3.67
2022-11-11T00:24:02.912Z,4.60
2022-11-11T00:26:44.705Z,4.80
2022-11-11T00:29:11.531Z,4.25
2022-11-11T00:31:57.953Z,4.10
2022-11-11T00:34:24.529Z,4.13
2022-11-11T00:36:51.056Z,4.20
2022-11-11T00:39:17.516Z,4.20
2022-11-11T00:41:44.032Z,4.70
2022-11-11T00:44:10.619Z,3.70
2022-11-11T00:46:55.864Z,3.80
2022-11-11T00:49:41.037Z,4.10
2022-11-11T00:52:07.496Z,4.50
2022-11-11T00:54:34.028Z,4.07
2022-11-11T00:57:00.465Z,4.10
2022-11-11T00:59:26.954Z,4.88
2022-11-11T01:01:53.597Z,4.45
2022-11-11T01:04:20.006Z,4.90
2022-11-11T01:06:46.554Z,6.15
2022-11-11T01:09:13.020Z,5.88
2022-11-11T01:11:39.449Z,6.28
2022-11-11T01:14:05.859Z,5.50
2022-11-11T01:16:32.327Z,5.35
2022-11-11T01:18:58.971Z,5.53
2022-11-11T01:21:26.042Z,5.00
2022-11-11T01:23:53.860Z,5.18
2022-11-11T01:26:30.583Z,4.78
2022-11-11T01:28:58.773Z,5.00
2022-11-11T01:31:27.307Z,5.10
2022-11-11T01:33:54.406Z,4.75
2022-11-11T01:36:24.551Z,5.40
2022-11-11T01:38:53.515Z,5.05
2022-11-11T01:41:32.823Z,4.70
2022-11-11T01:44:39.940Z,4.03
2022-11-11T01:47:07.553Z,4.72
2022-11-11T01:49:56.208Z,4.95
2022-11-11T01:52:25.765Z,4.72
2022-11-11T01:55:13.749Z,4.10
2022-11-11T01:58:02.976Z,4.50
2022-11-11T02:00:29.379Z,4.25
2022-11-11T02:03:01.074Z,4.95
2022-11-11T02:05:45.502Z,3.90
2022-11-11T02:08:32.422Z,3.90
2022-11-11T02:11:07.279Z,4.00
2022-11-11T02:13:56.469Z,4.07
2022-11-11T02:16:24.445Z,4.32
2022-11-11T02:19:45.878Z,4.32
2022-11-11T02:22:44.502Z,4.55
2022-11-11T02:25:14.919Z,4.32
2022-11-11T02:27:45.522Z,4.10
2022-11-11T02:30:15.847Z,4.40
2022-11-11T02:32:44.288Z,5.10
2022-11-11T02:35:17.824Z,4.55
2022-11-11T02:37:50.591Z,4.25
2022-11-11T02:40:31.345Z,4.25
2022-11-11T02:42:57.918Z,4.30
2022-11-11T02:45:24.621Z,3.97
2022-11-11T02:47:51.385Z,4.25
2022-11-11T02:50:18.135Z,4.13
2022-11-11T02:52:44.646Z,3.85
2022-11-11T02:55:11.512Z,4.13
2022-11-11T02:57:40.793Z,4.13
2022-11-11T03:00:08.059Z,3.92
2022-11-11T03:02:34.796Z,4.55
2022-11-11T03:05:01.296Z,4.63
2022-11-11T03:07:27.929Z,4.13
2022-11-11T03:10:37.418Z,4.63
2022-11-11T03:13:36.388Z,4.88
2022-11-11T03:16:34.880Z,5.30
2022-11-11T03:19:06.374Z,5.30
2022-11-11T03:22:52.622Z,5.22
2022-11-11T03:24:19.201Z,4.95
2022-11-11T03:26:45.593Z,4.90
2022-11-11T03:29:12.036Z,4.55
2022-11-11T03:31:38.481Z,4.88
2022-11-11T03:34:20.094Z,4.97
2022-11-11T03:37:12.878Z,4.75
2022-11-11T03:39:39.266Z,5.07
2022-11-11T03:42:05.670Z,5.35
2022-11-11T03:44:32.087Z,4.72
2022-11-11T03:46:58.488Z,5.47
2022-11-11T03:49:24.872Z,5.13
2022-11-11T03:51:51.345Z,6.18
2022-11-11T03:54:17.709Z,5.53
2022-11-11T03:56:45.320Z,6.38
2022-11-11T03:59:11.726Z,7.15
2022-11-11T04:01:56.929Z,6.70
2022-11-11T04:04:41.861Z,6.05
2022-11-11T04:07:28.623Z,5.95
2022-11-11T04:10:13.651Z,5.53
2022-11-11T04:13:01.055Z,5.22
2022-11-11T04:15:45.891Z,5.22
2022-11-11T04:18:12.331Z,5.00
2022-11-11T04:20:57.146Z,5.25
2022-11-11T04:23:23.905Z,5.70
2022-11-11T04:25:50.722Z,5.30
2022-11-11T04:28:35.754Z,4.68
2022-11-11T04:31:02.322Z,5.18
2022-11-11T04:33:28.744Z,5.53
2022-11-11T04:35:55.234Z,5.22
2022-11-11T04:38:40.326Z,4.95
2022-11-11T04:41:08.934Z,5.10
2022-11-11T04:43:55.295Z,5.90
2022-11-11T04:46:21.752Z,4.35
2022-11-11T04:48:48.167Z,5.05
2022-11-11T04:51:14.594Z,4.35
2022-11-11T04:53:41.026Z,4.60
2022-11-11T04:56:27.144Z,5.30
2022-11-11T04:59:13.534Z,5.47
2022-11-11T05:01:58.380Z,5.30
2022-11-11T05:04:24.796Z,4.95
2022-11-11T05:07:10.031Z,5.05
2022-11-11T05:09:36.532Z,4.70
2022-11-11T05:12:03.682Z,4.43
2022-11-11T05:14:48.620Z,4.78
2022-11-11T05:17:33.397Z,5.28
2022-11-11T05:20:18.211Z,4.88
2022-11-11T05:22:44.665Z,5.05
2022-11-11T05:25:33.882Z,5.43
2022-11-11T05:28:00.280Z,5.65
2022-11-11T05:30:29.639Z,5.97
2022-11-11T05:32:56.322Z,6.00
2022-11-11T05:35:22.924Z,5.57
2022-11-11T05:38:09.307Z,6.50
2022-11-11T05:40:35.991Z,4.55
2022-11-11T05:43:02.455Z,4.60
2022-11-11T05:45:28.926Z,4.10
2022-11-11T05:47:55.332Z,3.90
2022-11-11T05:50:21.754Z,4.15
2022-11-11T05:52:57.144Z,4.03
2022-11-11T05:57:49.902Z,4.03
2022-11-11T06:00:19.926Z,3.60
2022-11-11T06:02:54.957Z,3.85
2022-11-11T06:05:21.363Z,4.10
2022-11-11T06:07:54.566Z,4.35
2022-11-11T06:10:35.535Z,4.75
2022-11-11T06:13:02.160Z,3.47
2022-11-11T06:15:28.837Z,3.80
2022-11-11T06:17:55.219Z,3.70
2022-11-11T06:20:21.660Z,4.47
2022-11-11T06:22:57.135Z,4.78
2022-11-11T06:25:47.903Z,4.32
2022-11-11T06:28:15.309Z,5.78
2022-11-11T06:30:57.304Z,5.32
2022-11-11T06:33:23.995Z,4.50
2022-11-11T06:35:50.851Z,4.53
2022-11-11T06:38:18.181Z,4.10
2022-11-11T06:40:45.195Z,3.90
2022-11-11T06:43:14.182Z,3.90
2022-11-11T06:45:40.618Z,4.70
2022-11-11T06:48:07.593Z,4.57
2022-11-11T06:50:34.102Z,4.15
2022-11-11T06:53:05.890Z,3.50
2022-11-11T06:55:33.863Z,4.45
2022-11-11T06:58:06.763Z,4.20
2022-11-11T07:00:34.490Z,3.88
2022-11-11T07:03:01.109Z,4.57
2022-11-11T07:05:36.225Z,5.20
2022-11-11T07:08:04.261Z,5.00
2022-11-11T07:10:31.504Z,5.40
2022-11-11T07:12:57.983Z,5.70
2022-11-11T07:15:24.483Z,5.95
2022-11-11T07:17:50.876Z,5.50
2022-11-11T07:20:17.442Z,5.45
2022-11-11T07:22:43.949Z,5.80
2022-11-11T07:25:10.401Z,6.22
2022-11-11T07:27:44.124Z,5.20
2022-11-11T07:30:12.086Z,5.03
2022-11-11T07:32:48.972Z,5.90
2022-11-11T07:35:16.625Z,6.05
2022-11-11T07:37:43.140Z,5.95
2022-11-11T07:40:11.426Z,6.07
2022-11-11T07:42:39.279Z,5.70
2022-11-11T07:45:10.289Z,5.60
2022-11-11T07:47:37.281Z,6.55
2022-11-11T07:50:08.087Z,5.60
2022-11-11T07:52:36.880Z,6.22
2022-11-11T07:55:06.954Z,5.22
2022-11-11T07:57:33.389Z,5.10
2022-11-11T08:00:06.450Z,5.25
2022-11-11T08:02:34.340Z,10.77
2022-11-11T08:05:00.794Z,11.00
2022-11-11T08:07:27.289Z,14.13
2022-11-11T08:09:57.141Z,10.05
2022-11-11T08:12:42.150Z,13.13
2022-11-11T08:15:08.818Z,11.85
2022-11-11T08:17:39.646Z,10.48
2022-11-11T08:20:10.845Z,8.40
2022-11-11T08:22:38.753Z,7.63
2022-11-11T08:25:08.956Z,7.00
2022-11-11T08:27:36.956Z,12.32
2022-11-11T08:30:04.950Z,11.43
2022-11-11T08:32:31.433Z,8.68
2022-11-11T08:34:57.895Z,8.40
2022-11-11T08:37:24.320Z,16.35
2022-11-11T08:39:52.414Z,8.80
2022-11-11T08:42:35.169Z,8.65
2022-11-11T08:45:01.570Z,7.18
2022-11-11T08:47:27.997Z,7.47
2022-11-11T08:49:54.390Z,6.68
2022-11-11T08:52:20.820Z,5.13
2022-11-11T08:54:47.309Z,7.10
2022-11-11T08:57:13.793Z,5.40
2022-11-11T08:59:40.202Z,7.57
2022-11-11T09:02:10.564Z,6.82
2022-11-11T09:04:44.909Z,4.35
2022-11-11T09:07:12.849Z,5.70
2022-11-11T09:09:41.648Z,5.82
2022-11-11T09:12:08.055Z,6.10
2022-11-11T09:14:34.436Z,6.07
2022-11-11T09:17:00.833Z,5.43
2022-11-11T09:19:27.300Z,6.05
2022-11-11T09:21:53.896Z,5.40
2022-11-11T09:24:20.376Z,6.05
2022-11-11T09:26:50.831Z,5.78
2022-11-11T09:29:18.389Z,5.60
2022-11-11T09:31:46.517Z,5.63
2022-11-11T09:34:14.369Z,5.43
2022-11-11T09:36:41.208Z,5.82
2022-11-11T09:39:07.642Z,5.85
2022-11-11T09:41:53.258Z,5.90
2022-11-11T09:44:25.182Z,6.00
2022-11-11T09:47:25.127Z,5.72
2022-11-11T09:50:04.361Z,5.90
2022-11-11T09:52:33.774Z,6.10
2022-11-11T09:55:08.557Z,6.05
2022-11-11T09:57:38.836Z,5.40
2022-11-11T10:00:16.927Z,4.75
2022-11-11T10:02:51.288Z,4.90
2022-11-11T10:05:24.835Z,6.10
2022-11-11T10:07:58.120Z,5.35
2022-11-11T10:10:42.435Z,5.72
2022-11-11T10:13:36.441Z,5.68
2022-11-11T10:16:20.793Z,4.55
2022-11-11T10:19:12.061Z,4.90
2022-11-11T10:22:11.071Z,6.53
2022-11-11T10:24:44.823Z,5.60
2022-11-11T10:27:20.266Z,4.95
2022-11-11T10:29:48.070Z,5.22
2022-11-11T10:32:20.419Z,4.97
2022-11-11T10:34:47.186Z,5.20
2022-11-11T10:37:24.703Z,5.05
2022-11-11T10:40:21.017Z,5.38
2022-11-11T10:42:47.404Z,5.13
2022-11-11T10:45:20.049Z,5.03
2022-11-11T10:47:55.925Z,4.95
2022-11-11T10:50:36.872Z,5.25
2022-11-11T10:53:13.750Z,5.00
2022-11-11T10:56:04.187Z,5.15
2022-11-11T10:58:42.711Z,5.18
2022-11-11T11:01:17.101Z,3.67
2022-11-11T11:03:49.556Z,4.32
2022-11-11T11:06:29.952Z,4.03
2022-11-11T11:09:22.330Z,3.75
2022-11-11T11:11:54.312Z,3.78
2022-11-11T11:14:29.090Z,4.00
2022-11-11T11:19:27.544Z,3.22
2022-11-11T11:21:59.881Z,3.42
2022-11-11T11:24:38.451Z,3.20
2022-11-11T11:29:42.916Z,3.33
2022-11-11T11:32:29.543Z,3.05
2022-11-11T11:34:57.276Z,2.90
2022-11-11T11:37:26.484Z,3.28
2022-11-11T11:40:05.225Z,3.17
2022-11-11T11:42:36.813Z,3.40
2022-11-11T11:45:17.147Z,3.10
2022-11-11T11:48:09.489Z,3.35
2022-11-11T11:50:47.909Z,3.50
2022-11-11T11:53:32.298Z,3.58
2022-11-11T11:56:12.575Z,3.10
2022-11-11T11:58:42.864Z,3.20
2022-11-11T12:01:24.852Z,2.53
2022-11-11T12:04:33.236Z,3.17
2022-11-11T12:07:25.139Z,2.80
2022-11-11T12:10:21.057Z,2.67
2022-11-11T12:12:56.211Z,2.95
2022-11-11T12:15:36.609Z,3.30
2022-11-11T12:18:44.586Z,2.97
2022-11-11T12:21:14.698Z,2.90
2022-11-11T12:24:05.896Z,3.08
2022-11-11T12:26:37.713Z,2.78
2022-11-11T12:29:30.606Z,3.47
2022-11-11T12:32:05.827Z,3.08
2022-11-11T12:35:00.258Z,3.28
2022-11-11T12:37:38.743Z,3.20
2022-11-11T12:40:19.457Z,3.55
2022-11-11T12:43:02.986Z,3.20
2022-11-11T12:45:44.563Z,2.63
2022-11-11T12:48:29.791Z,2.70
2022-11-11T12:51:18.006Z,3.38
2022-11-11T12:53:59.781Z,2.65
2022-11-11T12:57:02.436Z,2.85
2022-11-11T12:59:35.805Z,3.00
2022-11-11T13:02:23.587Z,3.20
2022-11-11T13:05:11.905Z,3.20
2022-11-11T13:08:01.317Z,3.33
2022-11-11T13:11:00.234Z,2.90
2022-11-11T13:13:34.024Z,2.78
2022-11-11T13:16:00.615Z,3.70
2022-11-11T13:18:36.649Z,3.58
2022-11-11T13:21:11.967Z,3.08
2022-11-11T13:23:38.370Z,2.85
2022-11-11T13:26:14.285Z,3.90
2022-11-11T13:28:45.810Z,2.90
2022-11-11T13:31:30.011Z,3.08
2022-11-11T13:34:03.110Z,2.53
2022-11-11T13:36:40.036Z,3.22
2022-11-11T13:39:07.325Z,3.00
2022-11-11T13:41:40.804Z,3.20
2022-11-11T13:44:09.466Z,2.80
2022-11-11T13:46:49.852Z,3.30
2022-11-11T13:49:41.594Z,2.75
2022-11-11T13:52:52.406Z,2.95
2022-11-11T13:55:44.874Z,3.10
2022-11-11T13:58:25.216Z,2.63
2022-11-11T14:01:03.619Z,2.88
2022-11-11T14:03:34.243Z,3.00
2022-11-11T14:06:15.655Z,3.17
2022-11-11T14:08:48.156Z,2.22
2022-11-11T14:11:26.750Z,2.70
2022-11-11T14:13:55.322Z,3.13
2022-11-11T14:16:36.720Z,2.97
2022-11-11T14:19:18.371Z,3.20
2022-11-11T14:21:59.215Z,3.80
2022-11-11T14:24:47.090Z,3.33
2022-11-11T14:27:17.322Z,3.10
2022-11-11T14:29:55.046Z,2.60
2022-11-11T14:32:53.312Z,2.50
2022-11-11T14:35:40.369Z,2.95
2022-11-11T14:38:41.977Z,2.95
2022-11-11T14:41:47.741Z,2.70
2022-11-11T14:44:29.258Z,2.70
2022-11-11T14:47:07.918Z,2.58
2022-11-11T14:49:55.210Z,2.88
2022-11-11T14:52:30.405Z,2.53
2022-11-11T14:54:59.815Z,3.22
2022-11-11T14:57:31.920Z,2.60
2022-11-11T14:59:59.892Z,2.92
2022-11-11T15:02:33.581Z,3.83
2022-11-11T15:05:02.127Z,3.80
2022-11-11T15:08:13.040Z,4.75
2022-11-11T15:11:01.148Z,5.00
2022-11-11T15:13:46.414Z,5.75
2022-11-11T15:16:27.934Z,5.10
2022-11-11T15:19:22.356Z,4.95
2022-11-11T15:22:00.840Z,3.80
2022-11-11T15:24:48.521Z,3.00
2022-11-11T15:30:13.318Z,3.47
2022-11-11T15:33:26.712Z,3.60
2022-11-11T15:36:13.442Z,3.35
2022-11-11T15:38:40.069Z,3.38
2022-11-11T15:41:18.799Z,5.00
2022-11-11T15:43:45.233Z,3.88
2022-11-11T15:46:29.886Z,5.72
2022-11-11T15:48:56.375Z,11.63
2022-11-11T15:51:22.777Z,12.43
2022-11-11T15:53:49.503Z,9.52
2022-11-11T15:56:33.218Z,13.18
2022-11-11T15:59:22.081Z,7.20
2022-11-11T16:01:48.522Z,5.03
2022-11-11T16:04:53.226Z,3.67
2022-11-11T16:07:06.157Z,4.43
2022-11-11T16:09:32.947Z,4.53
2022-11-11T16:11:59.495Z,5.30
2022-11-11T16:14:31.126Z,5.75
2022-11-11T16:17:00.960Z,6.80
2022-11-11T16:19:38.608Z,9.85
2022-11-11T16:22:23.911Z,15.63
2022-11-11T16:24:51.307Z,13.00
2022-11-11T16:27:22.059Z,10.80
2022-11-11T16:29:48.523Z,10.35
2022-11-11T16:32:24.244Z,8.82
2022-11-11T16:34:53.652Z,8.35
2022-11-11T16:37:21.695Z,6.63
2022-11-11T16:39:48.129Z,6.43
2022-11-11T16:42:21.948Z,8.35
2022-11-11T16:45:05.138Z,7.05
2022-11-11T16:47:34.549Z,11.73
2022-11-11T16:50:10.137Z,6.80
2022-11-11T16:52:44.879Z,6.85
2022-11-11T16:55:30.519Z,5.50
2022-11-11T16:58:19.361Z,7.65
2022-11-11T17:00:46.758Z,8.70
2022-11-11T17:05:56.450Z,8.02
2022-11-11T17:08:42.193Z,7.40
2022-11-11T17:11:10.860Z,6.50
2022-11-11T17:13:42.249Z,7.28
2022-11-11T17:16:09.920Z,6.82
2022-11-11T17:18:39.374Z,7.32
2022-11-11T17:21:06.732Z,7.30
2022-11-11T17:23:37.763Z,7.15
2022-11-11T17:26:06.713Z,5.38
2022-11-11T17:28:35.224Z,6.05
2022-11-11T17:33:31.297Z,12.23
2022-11-11T17:35:58.097Z,11.18
2022-11-11T17:38:24.499Z,9.45
2022-11-11T17:40:51.025Z,9.80
2022-11-11T17:43:17.650Z,8.32
2022-11-11T17:45:44.305Z,7.47
2022-11-11T17:48:11.124Z,5.95
2022-11-11T17:50:39.029Z,6.40
2022-11-11T17:53:09.899Z,5.70
2022-11-11T17:55:38.717Z,6.20
2022-11-11T17:58:05.323Z,6.93
2022-11-11T18:00:31.756Z,6.55
2022-11-11T18:02:58.149Z,8.23
2022-11-11T18:05:24.613Z,8.85
2022-11-11T18:07:51.025Z,10.90
2022-11-11T18:10:17.609Z,8.82
2022-11-11T18:12:44.290Z,7.22
2022-11-11T18:15:13.001Z,7.25
2022-11-11T18:17:39.553Z,5.72
2022-11-11T18:20:06.572Z,6.25
2022-11-11T18:22:33.129Z,6.20
2022-11-11T18:24:59.509Z,6.20
2022-11-11T18:27:25.876Z,5.60
2022-11-11T18:29:52.247Z,6.72
2022-11-11T18:32:18.686Z,9.80
2022-11-11T18:34:45.069Z,12.13
2022-11-11T18:37:11.515Z,10.77
2022-11-11T18:39:37.904Z,9.32
2022-11-11T18:42:04.476Z,8.23
2022-11-11T18:44:30.884Z,7.22
2022-11-11T18:46:57.267Z,8.25
2022-11-11T18:49:23.656Z,9.63
2022-11-11T18:51:53.641Z,12.63
2022-11-11T18:54:20.127Z,8.68
2022-11-11T18:56:46.530Z,7.63
2022-11-11T18:59:13.361Z,7.38
2022-11-11T19:01:40.637Z,7.05
2022-11-11T19:04:10.805Z,6.35
2022-11-11T19:06:39.621Z,6.80
2022-11-11T19:09:16.310Z,7.10
2022-11-11T19:11:45.711Z,7.35
2022-11-11T19:14:16.399Z,7.18
2022-11-11T19:16:45.723Z,7.85
2022-11-11T19:19:12.313Z,8.10
2022-11-11T19:21:39.149Z,7.00
2022-11-11T19:24:07.708Z,7.90
2022-11-11T19:29:02.912Z,8.70
2022-11-11T19:31:30.201Z,9.10
2022-11-11T19:33:58.174Z,7.47
2022-11-11T19:36:28.387Z,7.35
2022-11-11T19:38:58.088Z,7.13
2022-11-11T19:41:26.524Z,7.40
2022-11-11T19:43:56.666Z,7.15
2022-11-11T19:46:24.904Z,7.60
2022-11-11T19:48:55.786Z,6.55
2022-11-11T19:51:27.293Z,7.18
2022-11-11T19:53:56.591Z,9.63
2022-11-11T19:56:24.950Z,9.50
2022-11-11T19:58:51.518Z,8.57
2022-11-11T20:01:21.664Z,8.45
2022-11-11T20:03:48.755Z,8.48
2022-11-11T20:06:30.748Z,7.50
2022-11-11T20:09:01.766Z,8.02
2022-11-11T20:11:29.018Z,7.90
2022-11-11T20:13:56.242Z,8.85
2022-11-11T20:16:23.239Z,8.18
2022-11-11T20:18:53.466Z,8.13
2022-11-11T20:21:19.875Z,7.97
2022-11-11T20:23:46.278Z,7.32
2022-11-11T20:26:15.280Z,7.47
2022-11-11T20:28:42.777Z,6.78
2022-11-11T20:31:12.584Z,7.28
2022-11-11T20:33:39.489Z,7.20
2022-11-11T20:36:08.817Z,6.05
2022-11-11T20:38:36.263Z,6.40
2022-11-11T20:41:08.373Z,6.57
2022-11-11T20:43:37.859Z,7.10
2022-11-11T20:46:06.802Z,6.82
2022-11-11T20:48:34.529Z,5.80
2022-11-11T20:51:12.489Z,6.85
2022-11-11T20:53:39.464Z,6.57
2022-11-11T20:56:12.392Z,7.80
2022-11-11T20:58:53.087Z,6.82
2022-11-11T21:01:22.887Z,7.15
2022-11-11T21:03:53.526Z,6.05
2022-11-11T21:06:20.156Z,6.60
2022-11-11T21:08:47.118Z,7.18
2022-11-11T21:11:16.291Z,6.70
2022-11-11T21:13:46.070Z,8.07
2022-11-11T21:16:23.808Z,8.80
2022-11-11T21:18:51.166Z,7.60
2022-11-11T21:21:24.219Z,8.32
2022-11-11T21:24:08.805Z,7.57
2022-11-11T21:26:36.580Z,9.73
2022-11-11T21:29:03.677Z,13.43
2022-11-11T21:31:32.440Z,10.50
2022-11-11T21:34:04.411Z,10.10
2022-11-11T21:36:33.216Z,9.02
2022-11-11T21:39:02.034Z,7.72
2022-11-11T21:41:29.473Z,7.88
2022-11-11T21:43:55.998Z,7.88
2022-11-11T21:46:25.021Z,5.95
2022-11-11T21:48:53.340Z,6.18
2022-11-11T21:51:24.865Z,5.68
2022-11-11T21:54:02.138Z,8.02
2022-11-11T21:56:31.259Z,7.82
2022-11-11T21:59:00.740Z,7.25
2022-11-11T22:01:30.780Z,7.80
2022-11-11T22:04:02.644Z,6.90
2022-11-11T22:06:30.060Z,6.57
2022-11-11T22:08:57.543Z,7.55
2022-11-11T22:11:30.646Z,6.35
2022-11-11T22:13:58.518Z,7.35
2022-11-11T22:16:30.793Z,7.78
2022-11-11T22:18:59.909Z,8.25
2022-11-11T22:21:28.621Z,7.47
2022-11-11T22:26:27.711Z,6.90
2022-11-11T22:28:54.921Z,7.50
2022-11-11T22:31:24.826Z,7.65
2022-11-11T22:34:00.865Z,7.25
2022-11-11T22:36:29.547Z,7.43
2022-11-11T22:38:56.704Z,7.97
2022-11-11T22:41:26.568Z,8.00
2022-11-11T22:43:59.823Z,8.13
2022-11-11T22:46:27.770Z,8.85
2022-11-11T22:49:03.423Z,7.55
2022-11-11T22:51:31.460Z,7.50
2022-11-11T22:54:03.466Z,7.95
2022-11-11T22:56:30.895Z,7.28
2022-11-11T22:58:57.808Z,7.35
2022-11-11T23:01:30.018Z,5.22
2022-11-11T23:03:59.833Z,5.50
2022-11-11T23:06:36.016Z,5.70
2022-11-11T23:09:04.091Z,5.50
2022-11-11T23:11:32.372Z,6.28
2022-11-11T23:14:08.044Z,6.03
2022-11-11T23:16:34.742Z,5.75
2022-11-11T23:19:04.653Z,5.72
2022-11-11T23:21:32.175Z,6.57
2022-11-11T23:23:59.226Z,7.55
2022-11-11T23:26:31.230Z,8.18
2022-11-11T23:28:58.094Z,10.57
2022-11-11T23:31:27.284Z,7.57
2022-11-11T23:33:55.526Z,7.07
2022-11-11T23:36:24.105Z,9.43
2022-11-11T23:38:51.214Z,8.18
2022-11-11T23:41:18.017Z,7.55
2022-11-11T23:43:44.967Z,9.20
2022-11-11T23:46:11.933Z,8.10
2022-11-11T23:48:39.042Z,6.28
2022-11-11T23:51:05.697Z,5.70
2022-11-11T23:53:32.744Z,5.35
2022-11-11T23:55:59.184Z,5.68
2022-11-11T23:58:26.122Z,5.57
